createdAt,value
2019-02-22T00:05:01.967Z,99396.30
2019-02-22T00:10:08.697Z,99384.08
2019-02-22T00:15:13.931Z,99392.16
2019-02-22T00:20:19.797Z,99396.95
2019-02-22T00:25:26.597Z,99394.31
2019-02-22T00:30:32.589Z,99404.22
2019-02-22T00:35:37.811Z,99396.97
2019-02-22T00:40:43.483Z,99406.69
2019-02-22T00:45:49.276Z,99406.34
2019-02-22T00:50:54.362Z,99413.13
2019-02-22T00:56:00.609Z,99417.44
2019-02-22T01:01:07.510Z,99425.35
2019-02-22T01:06:13.064Z,99421.02
2019-02-22T01:11:18.349Z,99427.63
2019-02-22T01:16:23.601Z,99425.84
2019-02-22T01:21:28.762Z,99427.83
2019-02-22T01:26:34.625Z,99441.51
2019-02-22T01:31:39.787Z,99446.13
2019-02-22T01:36:46.027Z,99448.45
2019-02-22T01:41:51.659Z,99448.79
2019-02-22T01:46:56.818Z,99452.93
2019-02-22T01:52:02.052Z,99459.35
2019-02-22T01:57:07.288Z,99458.38
2019-02-22T02:02:12.534Z,99448.14
2019-02-22T02:07:18.165Z,99460.01
2019-02-22T02:12:23.582Z,99463.48
2019-02-22T02:17:29.011Z,99461.98
2019-02-22T02:22:34.512Z,99467.61
2019-02-22T02:27:39.670Z,99472.38
2019-02-22T02:32:45.728Z,99485.91
2019-02-22T02:37:51.269Z,99484.41
2019-02-22T02:42:56.708Z,99483.75
2019-02-22T02:48:02.286Z,99490.70
2019-02-22T02:53:07.527Z,99498.09
2019-02-22T02:58:12.895Z,99507.50
2019-02-22T03:03:18.046Z,99515.09
2019-02-22T03:08:25.261Z,99508.64
2019-02-22T03:13:30.855Z,99512.77
2019-02-22T03:18:36.256Z,99515.75
2019-02-22T03:23:41.507Z,99521.17
2019-02-22T03:28:47.615Z,99520.86
2019-02-22T03:33:52.709Z,99522.49
2019-02-22T03:38:58.300Z,99536.86
2019-02-22T03:44:03.860Z,99545.44
2019-02-22T03:49:09.052Z,99545.58
2019-02-22T03:54:14.322Z,99548.88
2019-02-22T03:59:19.602Z,99552.83
2019-02-22T04:04:24.902Z,99565.54
2019-02-22T04:09:30.507Z,99562.59
2019-02-22T04:14:36.122Z,99573.28
2019-02-22T04:19:41.426Z,99577.59
2019-02-22T04:24:46.690Z,99583.34
2019-02-22T04:29:52.189Z,99593.57
2019-02-22T04:34:58.280Z,99595.86
2019-02-22T04:40:03.587Z,99595.03
2019-02-22T04:45:08.894Z,99602.45
2019-02-22T04:50:14.137Z,99598.67
2019-02-22T04:55:19.916Z,99616.95
2019-02-22T05:00:26.907Z,99616.28
2019-02-22T05:05:33.398Z,99627.84
2019-02-22T05:10:38.910Z,99632.93
2019-02-22T05:15:44.415Z,99633.75
2019-02-22T05:20:51.170Z,99633.58
2019-02-22T05:25:56.456Z,99644.95
2019-02-22T05:31:02.030Z,99652.50
2019-02-22T05:36:07.543Z,99667.36
2019-02-22T05:41:12.824Z,99663.40
2019-02-22T05:46:18.108Z,99663.88
2019-02-22T05:51:23.385Z,99688.44
2019-02-22T05:56:28.640Z,99685.45
2019-02-22T06:01:33.910Z,99695.67
2019-02-22T06:06:39.081Z,99709.03
2019-02-22T06:11:45.173Z,99716.27
2019-02-22T06:16:50.745Z,99723.99
2019-02-22T06:21:55.896Z,99734.35
2019-02-22T06:27:01.489Z,99736.16
2019-02-22T06:32:06.975Z,99748.02
2019-02-22T06:37:12.166Z,99752.97
2019-02-22T06:42:18.784Z,99759.08
2019-02-22T06:47:24.288Z,99773.90
2019-02-22T06:52:29.878Z,99777.69
2019-02-22T06:57:35.178Z,99794.83
2019-02-22T07:02:40.457Z,99806.02
2019-02-22T07:07:45.905Z,99812.93
2019-02-22T07:13:01.237Z,99809.14
2019-02-22T07:18:06.655Z,99842.22
2019-02-22T07:23:11.834Z,99846.82
2019-02-22T07:28:17.328Z,99855.73
2019-02-22T07:33:23.282Z,99857.34
2019-02-22T07:38:29.507Z,99871.28
2019-02-22T07:43:34.717Z,99875.97
2019-02-22T07:48:40.165Z,99895.34
2019-02-22T07:53:45.433Z,99898.13
2019-02-22T07:58:50.619Z,99913.42
2019-02-22T08:03:57.087Z,99917.66
2019-02-22T08:09:02.631Z,99933.63
2019-02-22T08:14:09.612Z,99942.05
2019-02-22T08:19:15.195Z,99938.30
2019-02-22T08:24:20.763Z,99949.36
2019-02-22T08:29:26.025Z,99952.30
2019-02-22T08:34:31.281Z,99959.21
2019-02-22T08:39:36.977Z,99970.79
2019-02-22T08:44:42.183Z,99976.58
2019-02-22T08:49:47.492Z,99972.67
2019-02-22T08:54:53.164Z,99980.78
2019-02-22T08:59:58.386Z,99992.95
2019-02-22T09:05:03.575Z,100000.19
2019-02-22T09:10:10.215Z,100014.00
2019-02-22T09:15:15.586Z,100017.36
2019-02-22T09:20:20.758Z,100022.52
2019-02-22T09:25:26.012Z,100027.63
2019-02-22T09:30:31.274Z,100036.53
2019-02-22T09:35:36.883Z,100051.20
2019-02-22T09:40:42.312Z,100054.35
2019-02-22T09:45:47.648Z,100060.98
2019-02-22T09:50:53.040Z,100070.47
2019-02-22T09:55:58.877Z,100066.80
2019-02-22T10:01:04.408Z,100072.38
2019-02-22T10:06:12.099Z,100076.77
2019-02-22T10:11:17.525Z,100087.05
2019-02-22T10:16:22.786Z,100096.86
2019-02-22T10:21:28.163Z,100116.86
2019-02-22T10:26:33.668Z,100130.16
2019-02-22T10:31:38.928Z,100139.45
2019-02-22T10:36:45.474Z,100144.20
2019-02-22T10:41:50.976Z,100154.89
2019-02-22T10:46:56.490Z,100159.22
2019-02-22T10:52:01.758Z,100171.19
2019-02-22T10:57:06.946Z,100175.55
2019-02-22T11:02:12.235Z,100193.50
2019-02-22T11:07:17.834Z,100189.87
2019-02-22T11:12:23.872Z,100207.55
2019-02-22T11:17:30.005Z,100215.25
2019-02-22T11:22:35.569Z,100227.33
2019-02-22T11:27:43.213Z,100229.48
2019-02-22T11:32:49.023Z,100242.12
2019-02-22T11:37:54.232Z,100231.97
2019-02-22T11:42:59.854Z,100252.80
2019-02-22T11:48:09.043Z,100255.22
2019-02-22T11:53:12.318Z,100253.20
2019-02-22T11:58:17.565Z,100259.78
2019-02-22T12:03:24.983Z,100262.02
2019-02-22T12:08:30.159Z,100269.58
2019-02-22T12:13:36.203Z,100278.78
2019-02-22T12:18:41.564Z,100284.98
2019-02-22T12:23:46.818Z,100282.39
2019-02-22T12:28:52.829Z,100297.64
2019-02-22T12:33:58.203Z,100301.92
2019-02-22T12:39:06.046Z,100307.53
2019-02-22T12:44:11.637Z,100321.38
2019-02-22T12:49:17.235Z,100330.70
2019-02-22T12:54:22.547Z,100340.08
2019-02-22T12:59:28.052Z,100353.64
2019-02-22T13:04:33.337Z,100370.64
2019-02-22T13:09:38.539Z,100369.01
2019-02-22T13:14:43.736Z,100377.05
2019-02-22T13:19:48.963Z,100385.41
2019-02-22T13:24:54.161Z,100388.14
2019-02-22T13:30:00.837Z,100397.59
2019-02-22T13:35:07.610Z,100405.09
2019-02-22T13:40:13.797Z,100404.27
2019-02-22T13:45:26.736Z,100407.59
2019-02-22T13:50:25.948Z,100429.19
2019-02-22T13:55:31.161Z,100425.60
2019-02-22T14:00:36.728Z,100441.47
2019-02-22T14:05:42.382Z,100448.62
2019-02-22T14:10:48.063Z,100464.82
2019-02-22T14:15:53.284Z,100470.19
2019-02-22T14:20:58.815Z,100483.65
2019-02-22T14:26:04.008Z,100487.83
2019-02-22T14:31:09.201Z,100496.88
2019-02-22T14:36:14.920Z,100504.50
2019-02-22T14:41:20.572Z,100509.15
2019-02-22T14:46:26.582Z,100509.23
2019-02-22T14:51:31.933Z,100515.44
2019-02-22T14:56:37.120Z,100515.43
2019-02-22T15:01:42.323Z,100517.41
2019-02-22T15:06:48.043Z,100517.73
2019-02-22T15:11:53.683Z,100515.34
2019-02-22T15:17:22.971Z,100532.26
2019-02-22T15:22:28.234Z,100540.31
2019-02-22T15:27:36.345Z,100545.53
2019-02-22T15:32:41.398Z,100557.64
2019-02-22T15:37:46.600Z,100553.72
2019-02-22T15:42:51.819Z,100558.79
2019-02-22T15:47:58.256Z,100571.33
2019-02-22T15:53:03.468Z,100569.67
2019-02-22T15:58:08.654Z,100573.45
2019-02-22T16:03:14.757Z,100575.44
2019-02-22T16:08:20.120Z,100579.71
2019-02-22T16:13:25.335Z,100588.95
2019-02-22T16:18:30.647Z,100606.17
2019-02-22T16:23:35.841Z,100609.72
2019-02-22T16:28:42.285Z,100621.95
2019-02-22T16:33:49.019Z,100626.80
2019-02-22T16:38:55.185Z,100631.08
2019-02-22T16:44:01.700Z,100637.58
2019-02-22T16:49:07.748Z,100650.88
2019-02-22T16:54:12.981Z,100644.27
2019-02-22T16:59:18.539Z,100645.45
2019-02-22T17:04:28.206Z,100645.12
2019-02-22T17:09:33.465Z,100647.83
2019-02-22T17:14:39.367Z,100656.77
2019-02-22T17:19:45.044Z,100660.98
2019-02-22T17:24:51.336Z,100656.40
2019-02-22T17:29:56.942Z,100650.48
2019-02-22T17:35:02.178Z,100667.31
2019-02-22T17:40:10.323Z,100689.92
2019-02-22T17:45:16.697Z,100710.02
2019-02-22T17:50:21.944Z,100727.82
2019-02-22T17:55:27.136Z,100732.41
2019-02-22T18:00:32.454Z,100724.78
2019-02-22T18:05:37.687Z,100715.64
2019-02-22T18:10:42.869Z,100715.36
2019-02-22T18:15:48.770Z,100727.25
2019-02-22T18:20:53.983Z,100748.03
2019-02-22T18:25:59.510Z,100752.33
2019-02-22T18:31:04.708Z,100748.73
2019-02-22T18:36:09.910Z,100754.20
2019-02-22T18:41:15.234Z,100768.20
2019-02-22T18:46:20.426Z,100759.36
2019-02-22T18:51:25.854Z,100761.50
2019-02-22T18:56:31.492Z,100765.23
2019-02-22T19:01:37.027Z,100776.62
2019-02-22T19:06:42.658Z,100784.62
2019-02-22T19:11:48.117Z,100791.32
2019-02-22T19:16:53.270Z,100783.11
2019-02-22T19:21:58.815Z,100788.86
2019-02-22T19:27:04.052Z,100775.58
2019-02-22T19:32:09.275Z,100777.70
2019-02-22T19:37:14.666Z,100771.98
2019-02-22T19:42:21.176Z,100782.27
2019-02-22T19:47:27.533Z,100784.10
2019-02-22T19:52:33.870Z,100778.94
2019-02-22T19:57:39.486Z,100770.55
2019-02-22T20:02:44.730Z,100786.69
2019-02-22T20:07:49.923Z,100789.63
2019-02-22T20:12:55.594Z,100805.98
2019-02-22T20:18:01.623Z,100799.51
2019-02-22T20:23:07.672Z,100804.74
2019-02-22T20:28:13.203Z,100819.13
2019-02-22T20:33:18.395Z,100821.08
2019-02-22T20:38:23.661Z,100845.41
2019-02-22T20:43:29.374Z,100845.28
2019-02-22T20:48:35.914Z,100847.44
2019-02-22T20:53:41.111Z,100861.13
2019-02-22T20:58:46.657Z,100857.27
2019-02-22T21:03:52.727Z,100847.09
2019-02-22T21:08:57.941Z,100850.00
2019-02-22T21:14:03.241Z,100858.25
2019-02-22T21:19:09.513Z,100863.93
2019-02-22T21:24:15.276Z,100859.17
2019-02-22T21:29:20.573Z,100850.77
2019-02-22T21:34:25.783Z,100851.31
2019-02-22T21:39:31.070Z,100862.61
2019-02-22T21:44:36.651Z,100864.36
2019-02-22T21:49:42.215Z,100871.63
2019-02-22T21:54:47.408Z,100861.70
2019-02-22T21:59:52.708Z,100865.20
2019-02-22T22:04:57.929Z,100865.13
2019-02-22T22:10:03.528Z,100851.44
2019-02-22T22:15:10.626Z,100861.92
2019-02-22T22:20:16.225Z,100870.25
2019-02-22T22:25:21.413Z,100897.23
2019-02-22T22:30:26.644Z,100903.41
2019-02-22T22:35:32.191Z,100906.48
2019-02-22T22:40:37.498Z,100909.73
2019-02-22T22:45:43.093Z,100915.34
2019-02-22T22:50:48.294Z,100920.91
2019-02-22T22:55:53.480Z,100914.70
2019-02-22T23:01:15.450Z,100914.98
2019-02-22T23:06:21.092Z,100899.55
2019-02-22T23:11:26.280Z,100910.56
2019-02-22T23:16:31.528Z,100919.42
2019-02-22T23:21:36.719Z,100914.95
2019-02-22T23:26:41.930Z,100914.53
2019-02-22T23:31:47.637Z,100920.87
2019-02-22T23:36:53.232Z,100927.23
2019-02-22T23:41:58.906Z,100920.81
2019-02-22T23:47:04.111Z,100919.77
2019-02-22T23:52:10.463Z,100913.98
2019-02-22T23:57:15.961Z,100897.15
